Airfield :
LOGIN :

Register | Disclaimer

   EN    FR    IT 

 










Legend :    VFR   Marginal VFR   IFR   Intensive IFR   Very Intensive IFR
Visi :
Ceiling :
>= 8 km
>= 3000ft
5 to 8 km
1000 to 3000 ft
1500m to 5 km
500 to 1000 ft
800 to 1500m
200 to 500 ft
< 800m
< 200 ft
Symbols :   Thunderstorms  Fog  Heavy snow  Heavy precipitations  Wind > 20 kt
SIGMETs :     Misc.  Thunderstorms  Icing  Turbulence  Mountain Waves  Volcanic Ashes







- Airport Elevation : 44 ft
- IATA code : SOU
- Download approach charts


EGHI - Southampton

CURRENT METAR :
  • 191450Z 22007KT 170V270 9999 FEW028 SCT033 10/04 Q1019

EXPIRED METARs :
  • 191420Z 24005KT 210V280 9999 VCSH FEW028 SCT036 09/04 Q1019
  • 191350Z 21012KT 190V250 9999 -SHRA FEW031 SCT040 09/03 Q1020
  • 191320Z 21012KT 9999 FEW032 SCT048 10/03 Q1020
  • 191250Z 24005KT 210V270 9999 FEW032 SCT048 10/04 Q1020
  • 191220Z 23006KT 9999 FEW025 SCT048 09/04 Q1020

TAF TAF EGHI
Valid from the 19 at 15:00 until the 19 at 23:00 UTC


191358Z 1915/1923 23010KT 9999 FEW030
PROB30
TEMPO 1915/1916 9000 -SHRA
ATIS : +44 23 8062 7103
No reported NOTAMs for that airfield.



MET'MAP, your aeronautical weather chart ! - Copyright ORBIFLY December 2007 - Disclaimer

ORBIFLY MET'MAP TEAM :

Programming & Development : Alexandra Zaïnal
Concept & Development : Baudouin d'Aumeries
Co-Development & Prog : Marc-Olivier Méhu
Technical & hardware support : Manuel Goepfert

Contact : metmap@orbifly.com




SOURCES & CREDITS :

   NOAA